createdAt,value
2018-10-01T00:02:04.989Z,5.63
2018-10-01T00:04:33.300Z,5.70
2018-10-01T00:07:01.607Z,5.83
2018-10-01T00:09:29.951Z,6.40
2018-10-01T00:11:58.252Z,6.30
2018-10-01T00:14:26.574Z,5.53
2018-10-01T00:16:54.864Z,5.37
2018-10-01T00:19:28.518Z,6.13
2018-10-01T00:22:02.284Z,6.30
2018-10-01T00:24:30.598Z,5.83
2018-10-01T00:26:58.903Z,5.10
2018-10-01T00:29:27.210Z,4.90
2018-10-01T00:31:55.525Z,5.30
2018-10-01T00:34:23.884Z,5.03
2018-10-01T00:36:52.181Z,5.50
2018-10-01T00:39:21.119Z,5.20
2018-10-01T00:41:49.425Z,5.10
2018-10-01T00:44:17.767Z,5.13
2018-10-01T00:46:46.070Z,5.23
2018-10-01T00:49:14.395Z,5.10
2018-10-01T00:51:42.700Z,4.93
2018-10-01T00:54:11.098Z,5.07
2018-10-01T00:56:39.388Z,5.17
2018-10-01T00:59:07.767Z,4.30
2018-10-01T01:01:36.114Z,4.30
2018-10-01T01:04:04.433Z,3.73
2018-10-01T01:06:32.724Z,3.57
2018-10-01T01:09:01.066Z,3.90
2018-10-01T01:11:29.365Z,3.60
2018-10-01T01:13:57.653Z,3.70
2018-10-01T01:16:25.970Z,3.50
2018-10-01T01:18:54.273Z,3.87
2018-10-01T01:21:22.597Z,4.43
2018-10-01T01:23:50.896Z,3.97
2018-10-01T01:26:19.213Z,4.83
2018-10-01T01:28:47.504Z,4.60
2018-10-01T01:31:15.827Z,4.80
2018-10-01T01:33:44.138Z,4.57
2018-10-01T01:36:12.506Z,4.40
2018-10-01T01:38:40.797Z,4.37
2018-10-01T01:41:09.142Z,4.50
2018-10-01T01:43:37.464Z,4.73
2018-10-01T01:46:05.785Z,3.93
2018-10-01T01:48:34.085Z,4.20
2018-10-01T01:51:02.403Z,4.90
2018-10-01T01:53:30.703Z,4.53
2018-10-01T01:55:59.029Z,4.40
2018-10-01T01:58:27.324Z,3.83
2018-10-01T02:00:55.646Z,4.00
2018-10-01T02:03:23.990Z,4.33
2018-10-01T02:05:52.305Z,3.73
2018-10-01T02:08:20.609Z,3.43
2018-10-01T02:10:48.965Z,4.17
2018-10-01T02:13:17.299Z,4.33
2018-10-01T02:15:45.613Z,4.13
2018-10-01T02:18:13.916Z,4.23
2018-10-01T02:20:42.288Z,3.70
2018-10-01T02:23:10.593Z,4.30
2018-10-01T02:25:38.909Z,4.37
2018-10-01T02:28:07.330Z,4.10
2018-10-01T02:30:35.657Z,4.27
2018-10-01T02:33:04.004Z,4.70
2018-10-01T02:35:32.322Z,4.17
2018-10-01T02:38:00.661Z,4.40
2018-10-01T02:40:29.138Z,4.60
2018-10-01T02:42:57.457Z,3.87
2018-10-01T02:45:25.814Z,4.90
2018-10-01T02:47:54.204Z,4.60
2018-10-01T02:50:22.497Z,3.97
2018-10-01T02:52:56.100Z,4.23
2018-10-01T02:55:24.426Z,4.50
2018-10-01T02:57:52.726Z,3.97
2018-10-01T03:00:21.057Z,4.40
2018-10-01T03:02:49.361Z,4.63
2018-10-01T03:05:17.700Z,4.17
2018-10-01T03:07:45.994Z,4.20
2018-10-01T03:10:14.304Z,3.97
2018-10-01T03:12:42.626Z,4.00
2018-10-01T03:15:10.968Z,3.43
2018-10-01T03:17:39.313Z,4.07
2018-10-01T03:20:07.963Z,4.40
2018-10-01T03:22:36.302Z,3.83
2018-10-01T03:25:04.655Z,4.10
2018-10-01T03:27:32.965Z,4.17
2018-10-01T03:30:01.271Z,4.00
2018-10-01T03:32:29.981Z,3.97
2018-10-01T03:34:58.276Z,3.97
2018-10-01T03:37:26.599Z,3.80
2018-10-01T03:39:54.957Z,4.40
2018-10-01T03:42:23.287Z,4.00
2018-10-01T03:44:51.701Z,4.10
2018-10-01T03:47:20.010Z,3.87
2018-10-01T03:49:48.329Z,4.50
2018-10-01T03:52:16.643Z,4.47
2018-10-01T03:54:44.936Z,4.37
2018-10-01T03:57:13.286Z,4.40
2018-10-01T03:59:41.610Z,3.83
2018-10-01T04:02:09.933Z,4.67
2018-10-01T04:04:38.226Z,4.27
2018-10-01T04:07:06.532Z,4.37
2018-10-01T04:09:34.852Z,4.50
2018-10-01T04:12:03.190Z,4.83
2018-10-01T04:14:31.489Z,4.47
2018-10-01T04:16:59.841Z,4.60
2018-10-01T04:19:28.137Z,4.27
2018-10-01T04:21:56.514Z,4.63
2018-10-01T04:24:24.817Z,4.47
2018-10-01T04:26:53.146Z,4.57
2018-10-01T04:29:21.445Z,4.73
2018-10-01T04:31:49.778Z,4.43
2018-10-01T04:34:18.077Z,4.77
2018-10-01T04:36:46.398Z,5.03
2018-10-01T04:39:14.942Z,4.73
2018-10-01T04:41:43.357Z,4.43
2018-10-01T04:44:12.006Z,4.23
2018-10-01T04:46:40.943Z,4.47
2018-10-01T04:49:10.305Z,4.40
2018-10-01T04:51:39.308Z,4.53
2018-10-01T04:54:07.706Z,4.97
2018-10-01T04:56:36.265Z,5.30
2018-10-01T04:59:04.838Z,5.83
2018-10-01T05:01:33.157Z,5.50
2018-10-01T05:04:01.466Z,4.60
2018-10-01T05:06:29.824Z,4.47
2018-10-01T05:08:58.133Z,5.13
2018-10-01T05:11:26.457Z,5.10
2018-10-01T05:13:54.787Z,4.73
2018-10-01T05:16:23.085Z,5.03
2018-10-01T05:18:51.425Z,4.90
2018-10-01T05:21:19.747Z,4.70
2018-10-01T05:23:48.085Z,5.23
2018-10-01T05:26:16.394Z,5.20
2018-10-01T05:28:44.705Z,5.13
2018-10-01T05:31:13.018Z,5.57
2018-10-01T05:33:41.339Z,5.07
2018-10-01T05:36:09.645Z,5.53
2018-10-01T05:38:38.007Z,5.27
2018-10-01T05:41:06.775Z,5.47
2018-10-01T05:43:35.094Z,5.10
2018-10-01T05:46:03.445Z,5.27
2018-10-01T05:48:31.772Z,4.80
2018-10-01T05:51:00.072Z,4.83
2018-10-01T05:53:28.425Z,5.23
2018-10-01T05:55:56.917Z,6.00
2018-10-01T05:58:25.239Z,6.20
2018-10-01T06:00:53.540Z,6.90
2018-10-01T06:03:21.873Z,9.37
2018-10-01T06:05:50.203Z,12.33
2018-10-01T06:08:18.537Z,14.77
2018-10-01T06:10:46.860Z,11.83
2018-10-01T06:13:15.188Z,11.60
2018-10-01T06:15:43.741Z,13.57
2018-10-01T06:18:12.084Z,12.30
2018-10-01T06:20:40.464Z,12.37
2018-10-01T06:23:08.800Z,11.73
2018-10-01T06:25:37.113Z,11.90
2018-10-01T06:28:05.435Z,10.70
2018-10-01T06:30:33.758Z,10.60
2018-10-01T06:33:02.079Z,9.90
2018-10-01T06:35:30.419Z,11.30
2018-10-01T06:37:58.924Z,10.00
2018-10-01T06:40:27.204Z,9.27
2018-10-01T06:42:55.543Z,8.17
2018-10-01T06:45:23.844Z,7.50
2018-10-01T06:47:52.175Z,7.60
2018-10-01T06:50:20.483Z,7.90
2018-10-01T06:52:48.831Z,7.90
2018-10-01T06:55:17.140Z,8.03
2018-10-01T06:57:45.452Z,8.67
2018-10-01T07:00:13.753Z,8.87
2018-10-01T07:02:42.091Z,7.60
2018-10-01T07:05:10.385Z,7.10
2018-10-01T07:07:38.733Z,6.83
2018-10-01T07:10:07.142Z,5.93
2018-10-01T07:12:35.444Z,5.60
2018-10-01T07:15:03.789Z,5.27
2018-10-01T07:17:32.183Z,5.30
2018-10-01T07:20:00.451Z,5.60
2018-10-01T07:22:28.813Z,5.07
2018-10-01T07:24:57.114Z,5.63
2018-10-01T07:27:25.429Z,5.77
2018-10-01T07:29:53.821Z,5.97
2018-10-01T07:32:22.138Z,6.73
2018-10-01T07:34:50.476Z,9.00
2018-10-01T07:37:18.791Z,10.40
2018-10-01T07:39:47.120Z,15.67
2018-10-01T07:42:15.446Z,13.10
2018-10-01T07:44:43.863Z,11.63
2018-10-01T07:47:12.145Z,12.20
2018-10-01T07:49:40.481Z,13.27
2018-10-01T07:52:08.817Z,18.37
2018-10-01T07:54:37.149Z,23.83
2018-10-01T07:57:05.514Z,17.27
2018-10-01T07:59:33.881Z,11.30
2018-10-01T08:02:02.189Z,15.97
2018-10-01T08:04:30.512Z,26.20
2018-10-01T08:06:58.854Z,17.10
2018-10-01T08:09:27.267Z,16.87
2018-10-01T08:11:55.506Z,16.13
2018-10-01T08:14:23.880Z,10.23
2018-10-01T08:16:52.169Z,8.37
2018-10-01T08:19:20.526Z,5.83
2018-10-01T08:21:48.866Z,4.27
2018-10-01T08:24:17.233Z,4.20
2018-10-01T08:26:45.537Z,3.97
2018-10-01T08:29:14.002Z,3.67
2018-10-01T08:31:42.238Z,3.27
2018-10-01T08:34:10.563Z,3.63
2018-10-01T08:36:38.878Z,3.70
2018-10-01T08:39:09.888Z,3.43
2018-10-01T08:41:38.564Z,2.87
2018-10-01T08:44:13.475Z,2.90
2018-10-01T08:46:42.074Z,3.00
2018-10-01T08:49:14.605Z,2.73
2018-10-01T08:51:50.488Z,2.63
2018-10-01T08:54:29.614Z,2.53
2018-10-01T08:56:57.906Z,2.30
2018-10-01T08:59:26.314Z,2.30
2018-10-01T09:01:54.600Z,1.97
2018-10-01T09:04:22.886Z,2.50
2018-10-01T09:06:51.201Z,2.30
2018-10-01T09:09:19.525Z,2.20
2018-10-01T09:11:47.830Z,1.90
2018-10-01T09:14:16.216Z,2.37
2018-10-01T09:16:44.489Z,1.83
2018-10-01T09:19:12.818Z,1.87
2018-10-01T09:21:41.228Z,2.03
2018-10-01T09:24:09.777Z,1.83
2018-10-01T09:26:38.180Z,1.70
2018-10-01T09:29:06.558Z,1.70
2018-10-01T09:31:34.917Z,1.90
2018-10-01T09:34:03.227Z,1.63
2018-10-01T09:36:31.612Z,1.97
2018-10-01T09:38:59.928Z,1.93
2018-10-01T09:41:28.244Z,2.20
2018-10-01T09:43:56.597Z,2.30
2018-10-01T09:46:24.905Z,2.00
2018-10-01T09:48:53.208Z,2.23
2018-10-01T09:51:21.520Z,2.37
2018-10-01T09:53:49.933Z,2.53
2018-10-01T09:56:18.264Z,2.43
2018-10-01T09:58:46.484Z,2.20
2018-10-01T10:01:15.935Z,2.20
2018-10-01T10:03:44.229Z,1.83
2018-10-01T10:06:12.545Z,2.03
2018-10-01T10:08:40.862Z,1.80
2018-10-01T10:11:09.269Z,1.60
2018-10-01T10:13:37.557Z,1.30
2018-10-01T10:16:05.960Z,1.53
2018-10-01T10:18:34.225Z,1.40
2018-10-01T10:21:02.551Z,1.27
2018-10-01T10:23:30.841Z,1.13
2018-10-01T10:25:59.255Z,1.27
2018-10-01T10:28:27.624Z,1.40
2018-10-01T10:30:55.856Z,1.53
2018-10-01T10:33:24.160Z,1.50
2018-10-01T10:35:52.468Z,1.50
2018-10-01T10:38:20.787Z,1.30
2018-10-01T10:40:49.097Z,1.10
2018-10-01T10:43:17.659Z,1.40
2018-10-01T10:45:45.977Z,1.43
2018-10-01T10:48:14.356Z,1.30
2018-10-01T10:50:42.719Z,1.80
2018-10-01T10:53:10.945Z,2.10
2018-10-01T10:55:39.402Z,1.30
2018-10-01T10:58:07.741Z,1.50
2018-10-01T11:00:36.065Z,1.73
2018-10-01T11:03:04.369Z,1.60
2018-10-01T11:05:32.686Z,1.67
2018-10-01T11:08:01.235Z,1.73
2018-10-01T11:10:29.480Z,1.53
2018-10-01T11:12:57.905Z,1.30
2018-10-01T11:15:26.318Z,1.43
2018-10-01T11:17:54.704Z,1.60
2018-10-01T11:20:23.210Z,1.47
2018-10-01T11:22:51.333Z,1.50
2018-10-01T11:25:19.690Z,1.40
2018-10-01T11:27:48.081Z,1.50
2018-10-01T11:30:16.297Z,1.50
2018-10-01T11:32:44.615Z,1.33
2018-10-01T11:35:13.089Z,1.10
2018-10-01T11:37:41.261Z,1.20
2018-10-01T11:40:09.597Z,1.10
2018-10-01T11:42:37.909Z,1.10
2018-10-01T11:45:06.575Z,1.50
2018-10-01T11:47:34.865Z,1.40
2018-10-01T11:50:03.254Z,1.17
2018-10-01T11:52:31.564Z,1.20
2018-10-01T11:54:59.852Z,1.10
2018-10-01T11:57:28.222Z,1.10
2018-10-01T11:59:57.577Z,1.10
2018-10-01T12:02:25.913Z,1.00
2018-10-01T12:04:54.309Z,1.10
2018-10-01T12:07:22.668Z,1.00
2018-10-01T12:09:51.084Z,0.87
2018-10-01T12:12:19.297Z,0.90
2018-10-01T12:14:47.640Z,0.90
2018-10-01T12:17:15.969Z,1.03
2018-10-01T12:19:44.266Z,1.00
2018-10-01T12:22:12.755Z,1.10
2018-10-01T12:24:40.994Z,1.00
2018-10-01T12:27:09.318Z,0.97
2018-10-01T12:29:37.624Z,0.90
2018-10-01T12:32:06.148Z,1.00
2018-10-01T12:34:34.436Z,0.83
2018-10-01T12:37:02.753Z,1.20
2018-10-01T12:39:31.123Z,1.00
2018-10-01T12:41:59.393Z,1.00
2018-10-01T12:44:27.691Z,1.00
2018-10-01T12:46:56.014Z,1.00
2018-10-01T12:49:24.309Z,0.83
2018-10-01T12:51:52.687Z,0.93
2018-10-01T12:54:20.981Z,0.90
2018-10-01T12:56:49.479Z,0.90
2018-10-01T12:59:17.846Z,0.97
2018-10-01T13:01:46.123Z,0.77
2018-10-01T13:04:14.433Z,0.70
2018-10-01T13:06:42.745Z,0.60
2018-10-01T13:09:12.402Z,0.70
2018-10-01T13:11:41.170Z,0.77
2018-10-01T13:14:09.773Z,0.70
2018-10-01T13:16:38.333Z,0.80
2018-10-01T13:19:06.689Z,0.63
2018-10-01T13:21:35.201Z,0.70
2018-10-01T13:24:03.549Z,0.80
2018-10-01T13:26:31.857Z,0.63
2018-10-01T13:29:00.191Z,0.67
2018-10-01T13:31:28.489Z,0.70
2018-10-01T13:33:56.824Z,0.90
2018-10-01T13:36:25.189Z,1.00
2018-10-01T13:38:53.457Z,0.70
2018-10-01T13:41:21.785Z,0.80
2018-10-01T13:43:50.121Z,1.00
2018-10-01T13:46:19.331Z,0.90
2018-10-01T13:48:47.726Z,0.70
2018-10-01T13:51:15.997Z,0.70
2018-10-01T13:53:44.315Z,0.73
2018-10-01T13:56:12.621Z,0.70
2018-10-01T13:58:40.939Z,0.80
2018-10-01T14:01:09.237Z,0.90
2018-10-01T14:03:37.553Z,0.70
2018-10-01T14:06:05.979Z,0.70
2018-10-01T14:08:34.306Z,0.50
2018-10-01T14:11:02.605Z,0.60
2018-10-01T14:13:31.156Z,0.70
2018-10-01T14:15:59.301Z,0.50
2018-10-01T14:18:27.636Z,0.50
2018-10-01T14:20:55.947Z,0.50
2018-10-01T14:23:24.574Z,0.40
2018-10-01T14:25:52.893Z,0.53
2018-10-01T14:28:21.233Z,0.50
2018-10-01T14:30:49.604Z,0.50
2018-10-01T14:33:17.908Z,0.40
2018-10-01T14:35:46.213Z,0.57
2018-10-01T14:38:14.543Z,0.40
2018-10-01T14:40:42.855Z,0.40
2018-10-01T14:43:11.301Z,0.40
2018-10-01T14:45:39.492Z,0.50
2018-10-01T14:48:07.871Z,0.50
2018-10-01T14:50:36.153Z,0.50
2018-10-01T14:53:04.472Z,0.40
2018-10-01T14:55:34.481Z,0.30
2018-10-01T14:58:02.837Z,0.43
2018-10-01T15:00:31.314Z,0.40
2018-10-01T15:02:59.482Z,0.40
2018-10-01T15:05:27.881Z,0.40
2018-10-01T15:07:56.201Z,0.63
2018-10-01T15:10:24.588Z,0.80
2018-10-01T15:12:52.889Z,0.80
2018-10-01T15:15:21.233Z,0.40
2018-10-01T15:17:49.528Z,0.60
2018-10-01T15:20:17.866Z,0.60
2018-10-01T15:22:46.342Z,0.70
2018-10-01T15:25:14.671Z,0.53
2018-10-01T15:27:42.989Z,0.50
2018-10-01T15:30:11.332Z,0.50
2018-10-01T15:32:39.625Z,0.50
2018-10-01T15:35:08.002Z,0.50
2018-10-01T15:37:36.282Z,1.20
2018-10-01T15:40:04.693Z,0.70
2018-10-01T15:42:32.987Z,0.60
2018-10-01T15:45:01.317Z,0.67
2018-10-01T15:47:29.633Z,0.80
2018-10-01T15:49:57.969Z,0.67
2018-10-01T15:52:26.294Z,0.53
2018-10-01T15:54:54.600Z,0.90
2018-10-01T15:57:23.121Z,0.70
2018-10-01T15:59:51.432Z,0.70
2018-10-01T16:02:19.725Z,0.60
2018-10-01T16:04:48.042Z,0.60
2018-10-01T16:07:16.338Z,0.57
2018-10-01T16:09:44.656Z,0.53
2018-10-01T16:12:12.953Z,0.57
2018-10-01T16:14:41.265Z,0.40
2018-10-01T16:17:09.562Z,0.50
2018-10-01T16:19:37.873Z,0.60
2018-10-01T16:22:06.197Z,0.50
2018-10-01T16:24:34.509Z,0.50
2018-10-01T16:27:03.046Z,0.40
2018-10-01T16:29:31.361Z,0.43
2018-10-01T16:31:59.658Z,0.60
2018-10-01T16:34:27.974Z,0.60
2018-10-01T16:36:56.293Z,0.90
2018-10-01T16:39:24.627Z,0.77
2018-10-01T16:41:52.917Z,0.50
2018-10-01T16:44:21.224Z,0.63
2018-10-01T16:46:50.655Z,0.50
2018-10-01T16:49:19.028Z,0.80
2018-10-01T16:51:47.323Z,0.80
2018-10-01T16:54:15.628Z,0.60
2018-10-01T16:56:43.920Z,0.60
2018-10-01T16:59:12.249Z,0.60
2018-10-01T17:01:42.768Z,0.70
2018-10-01T17:04:11.136Z,0.70
2018-10-01T17:06:39.432Z,0.53
2018-10-01T17:09:09.756Z,0.70
2018-10-01T17:11:38.909Z,0.90
2018-10-01T17:14:07.202Z,0.80
2018-10-01T17:16:35.508Z,1.00
2018-10-01T17:19:03.800Z,4.13
2018-10-01T17:21:32.118Z,2.40
2018-10-01T17:24:00.430Z,2.70
2018-10-01T17:26:28.774Z,3.10
2018-10-01T17:28:57.068Z,2.13
2018-10-01T17:31:25.409Z,1.60
2018-10-01T17:33:53.739Z,1.20
2018-10-01T17:36:22.134Z,1.30
2018-10-01T17:38:50.821Z,0.97
2018-10-01T17:41:19.178Z,1.17
2018-10-01T17:43:48.090Z,1.10
2018-10-01T17:46:17.140Z,1.00
2018-10-01T17:48:45.464Z,1.20
2018-10-01T17:51:16.462Z,1.13
2018-10-01T17:53:44.758Z,1.20
2018-10-01T17:56:13.068Z,1.40
2018-10-01T17:58:41.840Z,1.33
2018-10-01T18:01:10.207Z,1.80
2018-10-01T18:03:38.500Z,2.20
2018-10-01T18:06:06.915Z,1.90
2018-10-01T18:08:35.366Z,3.00
2018-10-01T18:11:03.681Z,3.13
2018-10-01T18:13:31.977Z,2.00
2018-10-01T18:16:00.342Z,1.47
2018-10-01T18:18:28.784Z,1.20
2018-10-01T18:20:57.125Z,1.10
2018-10-01T18:23:25.494Z,0.90
2018-10-01T18:25:54.497Z,1.10
2018-10-01T18:28:22.817Z,1.20
2018-10-01T18:30:51.248Z,0.90
2018-10-01T18:33:19.569Z,1.70
2018-10-01T18:35:47.951Z,3.00
2018-10-01T18:38:16.209Z,3.23
2018-10-01T18:40:44.541Z,6.07
2018-10-01T18:43:12.828Z,6.77
2018-10-01T18:45:41.137Z,2.73
2018-10-01T18:48:09.466Z,2.67
2018-10-01T18:50:37.775Z,3.13
2018-10-01T18:53:06.694Z,2.07
2018-10-01T18:55:35.062Z,5.50
2018-10-01T18:58:03.370Z,4.67
2018-10-01T19:00:31.675Z,4.27
2018-10-01T19:02:59.973Z,2.30
2018-10-01T19:05:28.281Z,2.30
2018-10-01T19:07:56.598Z,6.17
2018-10-01T19:10:25.015Z,3.63
2018-10-01T19:12:53.320Z,2.03
2018-10-01T19:15:21.732Z,1.97
2018-10-01T19:17:50.014Z,2.37
2018-10-01T19:20:18.313Z,1.90
2018-10-01T19:22:46.657Z,1.97
2018-10-01T19:25:14.959Z,2.20
2018-10-01T19:27:43.285Z,1.80
2018-10-01T19:30:11.599Z,3.40
2018-10-01T19:32:39.928Z,2.60
2018-10-01T19:35:08.293Z,3.43
2018-10-01T19:37:36.642Z,3.10
2018-10-01T19:40:04.993Z,6.47
2018-10-01T19:42:33.313Z,3.00
2018-10-01T19:45:01.649Z,2.20
2018-10-01T19:47:29.997Z,2.10
2018-10-01T19:49:58.329Z,1.80
2018-10-01T19:52:26.655Z,1.60
2018-10-01T19:54:54.952Z,1.70
2018-10-01T19:57:23.360Z,1.70
2018-10-01T19:59:51.605Z,1.40
2018-10-01T20:02:20.534Z,1.30
2018-10-01T20:04:48.888Z,1.70
2018-10-01T20:07:17.170Z,1.50
2018-10-01T20:09:45.485Z,1.27
2018-10-01T20:12:14.801Z,1.83
2018-10-01T20:14:43.525Z,1.70
2018-10-01T20:17:11.801Z,1.60
2018-10-01T20:19:40.331Z,1.37
2018-10-01T20:22:11.424Z,1.20
2018-10-01T20:24:39.790Z,1.20
2018-10-01T20:27:08.476Z,1.13
2018-10-01T20:29:37.075Z,1.40
2018-10-01T20:32:05.372Z,1.43
2018-10-01T20:34:33.726Z,1.30
2018-10-01T20:37:02.574Z,1.60
2018-10-01T20:39:31.103Z,1.20
2018-10-01T20:41:59.481Z,1.57
2018-10-01T20:44:27.893Z,1.30
2018-10-01T20:46:56.390Z,1.97
2018-10-01T20:49:24.582Z,1.60
2018-10-01T20:51:52.901Z,1.40
2018-10-01T20:54:21.202Z,1.50
2018-10-01T20:56:49.505Z,1.50
2018-10-01T20:59:17.877Z,2.27
2018-10-01T21:01:46.160Z,2.40
2018-10-01T21:04:14.449Z,2.00
2018-10-01T21:06:42.741Z,2.10
2018-10-01T21:09:12.309Z,2.00
2018-10-01T21:11:41.071Z,2.00
2018-10-01T21:14:09.528Z,1.97
2018-10-01T21:16:38.153Z,2.20
2018-10-01T21:19:06.585Z,2.27
2018-10-01T21:21:34.881Z,2.37
2018-10-01T21:24:03.407Z,2.03
2018-10-01T21:26:31.717Z,3.63
2018-10-01T21:29:00.208Z,5.77
2018-10-01T21:31:28.550Z,3.93
2018-10-01T21:33:58.444Z,3.83
2018-10-01T21:36:26.894Z,3.60
2018-10-01T21:38:55.218Z,2.50
2018-10-01T21:41:23.508Z,2.50
2018-10-01T21:43:51.841Z,2.60
2018-10-01T21:46:20.136Z,2.10
2018-10-01T21:48:48.457Z,2.23
2018-10-01T21:51:16.768Z,2.90
2018-10-01T21:53:45.089Z,3.47
2018-10-01T21:56:13.381Z,3.10
2018-10-01T21:58:41.694Z,3.27
2018-10-01T22:01:15.296Z,3.07
2018-10-01T22:03:43.638Z,3.80
2018-10-01T22:06:11.949Z,3.60
2018-10-01T22:08:40.281Z,3.57
2018-10-01T22:11:08.801Z,2.73
2018-10-01T22:13:37.129Z,3.03
2018-10-01T22:16:05.437Z,3.47
2018-10-01T22:18:33.761Z,3.67
2018-10-01T22:21:02.070Z,3.80
2018-10-01T22:23:30.411Z,3.70
2018-10-01T22:26:00.721Z,3.37
2018-10-01T22:28:29.117Z,3.90
2018-10-01T22:30:57.425Z,4.97
2018-10-01T22:33:25.737Z,5.07
2018-10-01T22:35:54.122Z,4.90
2018-10-01T22:38:22.426Z,5.53
2018-10-01T22:40:51.531Z,5.63
2018-10-01T22:43:23.699Z,5.60
2018-10-01T22:45:51.987Z,5.40
2018-10-01T22:48:21.193Z,4.97
2018-10-01T22:50:49.536Z,4.70
2018-10-01T22:53:17.887Z,4.20
2018-10-01T22:55:46.189Z,4.17
2018-10-01T22:58:14.533Z,3.30
2018-10-01T23:00:42.849Z,2.83
2018-10-01T23:03:11.205Z,3.23
2018-10-01T23:05:39.492Z,2.87
2018-10-01T23:08:08.545Z,3.37
2018-10-01T23:10:36.854Z,3.50
2018-10-01T23:13:05.185Z,3.33
2018-10-01T23:15:33.564Z,3.00
2018-10-01T23:18:01.930Z,2.70
2018-10-01T23:20:30.349Z,3.00
2018-10-01T23:22:58.692Z,2.83
2018-10-01T23:25:27.021Z,3.20
2018-10-01T23:27:55.372Z,2.43
2018-10-01T23:30:23.692Z,2.67
2018-10-01T23:32:51.980Z,2.87
2018-10-01T23:35:20.297Z,2.60
2018-10-01T23:37:48.589Z,2.20
2018-10-01T23:40:17.856Z,2.93
2018-10-01T23:42:46.252Z,3.93
2018-10-01T23:45:14.668Z,3.60
2018-10-01T23:47:42.985Z,3.30
2018-10-01T23:50:11.320Z,3.00
2018-10-01T23:52:39.669Z,3.50
2018-10-01T23:55:08.001Z,3.20
2018-10-01T23:57:36.336Z,3.27
